Sandtown, Arkansas
Current Conditions -  °F | °C
As of 3:53 PM on Thursday 18 Dec 2014 (Local Time) from KRUE Reporting Station
Overcast Overcast  
Wind Chill: 41°   Ceiling: 800
Heat Index: 41°   Visibility: 9mi
Dew Point: 37°   Wind: 0mph
Humidity: 86%   Direction: NA
Pressure: 30.17"   Gusts: NA
Location:  35.227°N, 92.6879°W
Report Text: KRUE 182153Z AUTO 00000KT 9SM OVC008 05/03 A3017 RMK AO2 SLP216 T00500028
Loading
Personal Weather Stations






























Interactive Weather Map New forecast layout! Learn more

10-Day Weather Forecast

Advertisements
Track Severe Weather on mobile